Terminal Aerodrome Forecast
Issued by NWS

Home | Current Version | Previous Version | Text Only | Print | Product List | Glossary On
Versions: 1 2 3 4 5 6 7 8 9 10 11 12 13 14 15 16 17 18 19 20 21 22 23 24 25 26
389
FTUS43 KSGF 220520
TAFJLN
TAF
KJLN 220520Z 2206/2306 VRB04KT P6SM VCTS SCT050CB OVC090
      TEMPO 2206/2210 4SM -TSRA BR OVC035CB
     FM221000 05006KT 4SM -SHRA BR OVC007
     FM221600 35014G25KT 3SM -RA BR OVC007
     FM222100 33015G22KT P6SM OVC050=

USA.gov is the U.S. government's official web portal to all federal, state and local government web resources and services.